Terminal Aerodrome Forecast
Issued by NWS

Home | Current Version | Previous Version | Graphics & Text | Print | Product List | Glossary On
Versions: 1 2 3 4 5 6 7 8 9 10 11 12 13 14 15 16 17 18 19 20
000
FTUS42 KMHX 121200 AAA
TAFISO
TAF AMD
KISO 121223Z 1212/1312 03003KT P6SM BKN010
      TEMPO 1212/1213 1/4SM FG OVC002
     FM121330 08004KT P6SM SCT040
     FM130000 00000KT P6SM SKC
     FM130700 00000KT 5SM BR SKC
      AMD LTD TO CLD VIS AND WIND=

USA.gov is the U.S. government's official web portal to all federal, state and local government web resources and services.